»·PEaware :: SWA1849 KSNA-KLAS

SWA1849 :: KSNA-KLAS

FLIGHT INFORMATION

Flight Status: Arrived
Operator:
Southwest Airlines
More flights by this operator :: More flights under this callsign
Pilot: Brian T. (24242)
Aircraft: BOEING 737-800
(B738)
More flights by this aircraft type
Origin: KSNA John Wayne-Orange Co
United States
Destination: KLAS McCarran Intl
United States
More flights between these airports :: More routes between these airports
Route: FINZZ2 MISEN KEPEC6
File this flight plan on PilotEdge
Remarks: Flying in VR (so give me a minute on those freq changes).
Altitude:
(Current/Filed)
29,000ft
Speed:
(Current/Filed)
460kts
Departed: 29-Nov-19 05:12 PM
Arrived: 29-Nov-19 05:58 PM
Distance/Time
Traveled:
197nm/0:46
Distance/Time
To Go:
Arrived

Flight Plot

Page will automatically refresh every two minutes.

Flight plan parsing failed; only flown route is shown


Map Options




Map Legend


Flown Route
Filed Route
Departure Airport
Arrival Airport
Navaid (VOR, NDB)
Fix

Horizontal Profiles

Position Reports

Time Latitude Longitude Heading Altitude Ground
Speed
29-Nov-19 16:34 33.676491 -117.864205 116 67ft 0kts
29-Nov-19 16:35 33.676491 -117.864205 116 67ft 0kts
29-Nov-19 16:36 33.676491 -117.864205 116 67ft 0kts
29-Nov-19 16:37 33.676491 -117.864205 116 67ft 0kts
29-Nov-19 16:38 33.676491 -117.864205 116 67ft 0kts
29-Nov-19 16:39 33.676491 -117.864205 116 67ft 0kts
29-Nov-19 16:40 33.676491 -117.864205 116 67ft 0kts
29-Nov-19 16:41 33.676491 -117.864205 116 67ft 0kts
29-Nov-19 16:42 33.676491 -117.864205 116 67ft 0kts
29-Nov-19 16:43 33.676491 -117.864205 116 67ft 0kts
29-Nov-19 16:44 33.676491 -117.864205 116 67ft 0kts
29-Nov-19 16:45 33.676491 -117.864205 116 67ft 0kts
29-Nov-19 16:46 33.676491 -117.864205 116 67ft 0kts
29-Nov-19 16:47 33.676491 -117.864205 116 67ft 0kts
29-Nov-19 16:48 33.676491 -117.864205 116 67ft 0kts
29-Nov-19 16:49 33.676491 -117.864205 116 67ft 0kts
29-Nov-19 16:50 33.676491 -117.864205 116 67ft 0kts
29-Nov-19 16:51 33.676491 -117.864205 116 67ft 0kts
29-Nov-19 16:52 33.676491 -117.864205 116 67ft 0kts
29-Nov-19 16:53 33.676491 -117.864205 116 67ft 0kts
29-Nov-19 16:54 33.676491 -117.864205 116 67ft 0kts
29-Nov-19 16:55 33.676491 -117.864205 116 67ft 0kts
29-Nov-19 16:56 33.676491 -117.864205 116 67ft 0kts
29-Nov-19 16:57 33.676491 -117.864205 116 67ft 0kts
29-Nov-19 16:58 33.676491 -117.864205 116 67ft 0kts
29-Nov-19 16:59 33.676491 -117.864205 116 67ft 0kts
29-Nov-19 17:00 33.676491 -117.864205 116 67ft 0kts
29-Nov-19 17:01 33.676491 -117.864205 116 67ft 0kts
29-Nov-19 17:02 33.676491 -117.864205 116 67ft 0kts
29-Nov-19 17:03 33.676521 -117.864277 117 67ft 2kts
29-Nov-19 17:04 33.676547 -117.864934 42 67ft 2kts
29-Nov-19 17:05 33.676424 -117.865027 26 66ft 0kts
29-Nov-19 17:06 33.676424 -117.865027 26 66ft 0kts
29-Nov-19 17:07 33.676424 -117.865027 26 66ft 0kts
29-Nov-19 17:08 33.678931 -117.863446 28 66ft 20kts
29-Nov-19 17:09 33.681126 -117.864165 294 67ft 0kts
29-Nov-19 17:10 33.681161 -117.864259 294 67ft 3kts
29-Nov-19 17:11 33.672692 -117.870754 207 67ft 146kts
29-Nov-19 17:12 33.620719 -117.894188 188 2493ft 241kts
29-Nov-19 17:13 33.555337 -117.920707 221 6280ft 253kts
29-Nov-19 17:14 33.507808 -117.986814 255 7994ft 259kts
29-Nov-19 17:15 33.532966 -118.068375 308 9088ft 276kts
29-Nov-19 17:16 33.608796 -118.106062 359 11884ft 332kts
29-Nov-19 17:17 33.699584 -118.065793 20 14869ft 361kts
29-Nov-19 17:18 33.790914 -118.012296 18 17607ft 376kts
29-Nov-19 17:19 33.887088 -117.956108 16 20188ft 389kts
29-Nov-19 17:20 33.983195 -117.874756 29 21742ft 437kts
29-Nov-19 17:21 34.081349 -117.783623 33 23855ft 455kts
29-Nov-19 17:22 34.166391 -117.663483 42 25747ft 479kts
29-Nov-19 17:23 34.252661 -117.535159 41 27540ft 491kts
29-Nov-19 17:24 34.341846 -117.401938 40 28954ft 503kts
29-Nov-19 17:25 34.431540 -117.267600 41 28973ft 501kts
29-Nov-19 17:26 34.522628 -117.130753 41 28972ft 504kts
29-Nov-19 17:27 34.614239 -116.996228 40 28953ft 506kts
29-Nov-19 17:28 34.706722 -116.861255 40 28948ft 509kts
29-Nov-19 17:29 34.798913 -116.726193 40 28947ft 510kts
29-Nov-19 17:30 34.897165 -116.602561 27 28689ft 494kts
29-Nov-19 17:31 35.004009 -116.499510 30 26249ft 473kts
29-Nov-19 17:32 35.105247 -116.400094 37 24013ft 455kts
29-Nov-19 17:33 35.195480 -116.287374 40 23900ft 464kts
29-Nov-19 17:34 35.283348 -116.177071 41 21847ft 443kts
29-Nov-19 17:35 35.367812 -116.070720 42 19671ft 424kts
29-Nov-19 17:36 35.449029 -115.968159 43 17674ft 412kts
29-Nov-19 17:37 35.527501 -115.868728 43 15617ft 397kts
29-Nov-19 17:38 35.602707 -115.773151 44 13919ft 370kts
29-Nov-19 17:39 35.670485 -115.686752 44 13065ft 331kts
29-Nov-19 17:40 35.732842 -115.608160 37 12994ft 319kts
29-Nov-19 17:41 35.813675 -115.572365 359 12996ft 309kts
29-Nov-19 17:42 35.899717 -115.567486 1 12979ft 308kts
29-Nov-19 17:43 35.976230 -115.521156 49 12676ft 310kts
29-Nov-19 17:44 36.015248 -115.425699 68 11270ft 308kts
29-Nov-19 17:45 36.027378 -115.326703 95 10613ft 279kts
29-Nov-19 17:46 36.020353 -115.226806 97 9305ft 283kts
29-Nov-19 17:47 36.013515 -115.128038 97 8277ft 272kts
29-Nov-19 17:48 36.007571 -115.035129 97 8004ft 251kts
29-Nov-19 17:49 36.002288 -114.945987 97 8010ft 257kts
29-Nov-19 17:50 35.998092 -114.857522 78 7592ft 258kts
29-Nov-19 17:51 36.048350 -114.846878 291 6091ft 220kts
29-Nov-19 17:52 36.066237 -114.912687 282 5036ft 189kts
29-Nov-19 17:53 36.073593 -114.974574 266 4578ft 167kts
29-Nov-19 17:54 36.073656 -115.033090 266 3661ft 152kts
29-Nov-19 17:55 36.073582 -115.086168 263 2824ft 141kts
29-Nov-19 17:56 36.073639 -115.136311 271 2152ft 107kts
29-Nov-19 17:57 36.074841 -115.150749 312 2152ft 14kts
29-Nov-19 17:58 36.075295 -115.151255 322 2152ft 0kts
29-Nov-19 17:59 36.075490 -115.151439 323 2152ft 8kts
29-Nov-19 18:00 36.078768 -115.152273 88 2152ft 12kts
29-Nov-19 18:01 36.078936 -115.147529 23 2152ft 9kts
29-Nov-19 18:02 36.080161 -115.147458 50 2152ft 2kts
29-Nov-19 18:03 36.080220 -115.147338 59 2152ft 0kts
29-Nov-19 18:04 36.080220 -115.147338 59 2152ft 0kts
29-Nov-19 18:05 36.080220 -115.147338 59 2152ft 0kts
29-Nov-19 18:06 36.080220 -115.147338 59 2152ft 0kts
29-Nov-19 18:07 36.080220 -115.147338 59 2152ft 0kts
29-Nov-19 18:08 36.080220 -115.147338 59 2152ft 0kts
29-Nov-19 18:09 36.080220 -115.147338 59 2152ft 0kts
29-Nov-19 18:10 36.080220 -115.147338 59 2152ft 0kts
29-Nov-19 18:11 36.080220 -115.147338 59 2152ft 0kts

Navigation Log

Ident Type
Flight plan parsing failed, navigation log unavailable